Airfield :
LOGIN :

Register | Disclaimer

   EN    FR    IT 

 










Legend :    VFR   Marginal VFR   IFR   Intensive IFR   Very Intensive IFR
Visi :
Ceiling :
>= 8 km
>= 3000ft
5 to 8 km
1000 to 3000 ft
1500m to 5 km
500 to 1000 ft
800 to 1500m
200 to 500 ft
< 800m
< 200 ft
Symbols :   Thunderstorms  Fog  Heavy snow  Heavy precipitations  Wind > 20 kt
SIGMETs :     Misc.  Thunderstorms  Icing  Turbulence  Mountain Waves  Volcanic Ashes







- Airport Elevation : 74 ft
- IATA code : LRH
- Download approach charts


LFBH - La Rochelle Ile de Ré

CURRENT METAR :
  • 221630Z AUTO 27004KT 9999 BKN030 BKN042 BKN078 08/05 Q1007 TEMPO 30015G25KT 3000 SHRA BKN020TCU

EXPIRED METARs :
  • 221600Z AUTO 28005KT 9999 SCT036 BKN046 OVC110 08/05 Q1007 TEMPO 30015G25KT 3000 SHRA BKN020TCU
  • 221530Z AUTO 30008KT 9999 FEW042 BKN049 OVC130 08/05 Q1007 TEMPO 30015G25KT 3000 SHRA BKN020TCU
  • 221500Z AUTO 30012KT CAVOK 08/04 Q1007 TEMPO 30015G25KT 3000 SHRA BKN020TCU
  • 221430Z AUTO 30015KT CAVOK 08/04 Q1007 TEMPO 30015G25KT 3000 SHRA BKN020TCU
  • 221400Z AUTO 30013KT 9999 FEW037 09/04 Q1008 TEMPO 30015G25KT 3000 SHRA BKN020TCU

TAF TAF LFBH
Valid from the 22 at 12:00 until the 23 at 12:00 UTC


221100Z 2212/2312 32012KT 9999 SCT020
PROB40
TEMPO 2215/2306 30015G25KT 3000 SHRA BKN020TCU
ATIS : +33 5 46 00 13 92
No reported NOTAMs for that airfield.



MET'MAP, your aeronautical weather chart ! - Copyright ORBIFLY December 2007 - Disclaimer

ORBIFLY MET'MAP TEAM :

Programming & Development : Alexandra Zaïnal
Concept & Development : Baudouin d'Aumeries
Co-Development & Prog : Marc-Olivier Méhu
Technical & hardware support : Manuel Goepfert

Contact : metmap@orbifly.com




SOURCES & CREDITS :

   NOAA